Lake Windsor, Wisconsin
Current Conditions -  °F | °C
As of 9:53 PM on Tuesday 27 Jan 2015 (Local Time) from KMSN Reporting Station
Overcast Overcast  
Wind Chill: 25°   Ceiling: 2700
Heat Index: 25°   Visibility: 10mi
Dew Point: 20°   Wind: 3mph
Humidity: 81%   Direction: 150°SSE
Pressure: 30.23"   Gusts: NA
Location:  43.2117°N, 89.3436°W
Report Text: KMSN 280353Z 15003KT 10SM OVC027 M04/M07 A3023 RMK AO2 SLP248 T10391067
Loading
Personal Weather Stations






























Interactive Weather Map New forecast layout! Learn more

10-Day Weather Forecast

Advertisements
Track Severe Weather on mobile